sensor_id;sensor_type;location;lat;lon;timestamp;pressure;altitude;pressure_sealevel;temperature;humidity
75767;BME280;64378;55.596;13.014;2023-05-07T00:02:03;102567.13;;;17.84;32.98
75767;BME280;64378;55.596;13.014;2023-05-07T00:04:29;102566.31;;;17.84;33.05
75767;BME280;64378;55.596;13.014;2023-05-07T00:07:00;102566.31;;;17.84;32.88
75767;BME280;64378;55.596;13.014;2023-05-07T00:09:25;102565.25;;;17.85;33.09
75767;BME280;64378;55.596;13.014;2023-05-07T00:11:51;102566.91;;;17.86;33.23
75767;BME280;64378;55.596;13.014;2023-05-07T00:14:16;102564.19;;;17.86;33.09
75767;BME280;64378;55.596;13.014;2023-05-07T00:16:41;102563.16;;;17.87;33.14
75767;BME280;64378;55.596;13.014;2023-05-07T00:19:06;102554.13;;;17.86;33.09
75767;BME280;64378;55.596;13.014;2023-05-07T00:21:32;102552.44;;;17.85;33.23
75767;BME280;64378;55.596;13.014;2023-05-07T00:23:57;102551.59;;;17.85;33.14
75767;BME280;64378;55.596;13.014;2023-05-07T00:26:22;102550.53;;;17.86;33.20
75767;BME280;64378;55.596;13.014;2023-05-07T00:28:47;102548.84;;;17.85;33.25
75767;BME280;64378;55.596;13.014;2023-05-07T00:31:13;102550.53;;;17.86;33.03
75767;BME280;64378;55.596;13.014;2023-05-07T00:33:38;102556.00;;;17.86;33.05
75767;BME280;64378;55.596;13.014;2023-05-07T00:36:03;102552.44;;;17.85;33.21
75767;BME280;64378;55.596;13.014;2023-05-07T00:38:29;102554.13;;;17.86;33.29
75767;BME280;64378;55.596;13.014;2023-05-07T00:40:54;102546.75;;;17.87;32.87
75767;BME280;64378;55.596;13.014;2023-05-07T00:43:19;102549.72;;;17.85;33.30
75767;BME280;64378;55.596;13.014;2023-05-07T00:45:44;102553.28;;;17.86;32.92
75767;BME280;64378;55.596;13.014;2023-05-07T00:48:11;102554.13;;;17.86;33.21
75767;BME280;64378;55.596;13.014;2023-05-07T00:50:36;102557.69;;;17.87;33.23
75767;BME280;64378;55.596;13.014;2023-05-07T00:53:01;102564.19;;;17.86;33.25
75767;BME280;64378;55.596;13.014;2023-05-07T00:55:27;102550.75;;;17.84;33.11
75767;BME280;64378;55.596;13.014;2023-05-07T00:57:53;102567.13;;;17.84;33.26
75767;BME280;64378;55.596;13.014;2023-05-07T01:00:18;102558.13;;;17.84;33.14
75767;BME280;64378;55.596;13.014;2023-05-07T01:02:44;102564.63;;;17.83;33.27
75767;BME280;64378;55.596;13.014;2023-05-07T01:05:14;102562.31;;;17.80;33.23
75767;BME280;64378;55.596;13.014;2023-05-07T01:07:40;102566.72;;;17.81;33.18
75767;BME280;64378;55.596;13.014;2023-05-07T01:10:07;102566.72;;;17.81;33.33
75767;BME280;64378;55.596;13.014;2023-05-07T01:12:33;102562.09;;;17.81;33.23
75767;BME280;64378;55.596;13.014;2023-05-07T01:14:59;102568.41;;;17.82;33.13
75767;BME280;64378;55.596;13.014;2023-05-07T01:17:24;102562.94;;;17.82;33.17
75767;BME280;64378;55.596;13.014;2023-05-07T01:19:49;102564.63;;;17.83;33.34
75767;BME280;64378;55.596;13.014;2023-05-07T01:22:15;102561.25;;;17.81;33.25
75767;BME280;64378;55.596;13.014;2023-05-07T01:24:41;102559.56;;;17.80;33.33
75767;BME280;64378;55.596;13.014;2023-05-07T01:27:07;102556.84;;;17.80;33.43
75767;BME280;64378;55.596;13.014;2023-05-07T01:29:32;102559.56;;;17.80;33.19
75767;BME280;64378;55.596;13.014;2023-05-07T01:31:58;102565.88;;;17.80;33.42
75767;BME280;64378;55.596;13.014;2023-05-07T01:34:24;102561.25;;;17.81;33.58
75767;BME280;64378;55.596;13.014;2023-05-07T01:36:50;102567.53;;;17.81;33.45
75767;BME280;64378;55.596;13.014;2023-05-07T01:39:17;102564.81;;;17.81;33.46
75767;BME280;64378;55.596;13.014;2023-05-07T01:41:42;102564.81;;;17.81;33.59
75767;BME280;64378;55.596;13.014;2023-05-07T01:44:08;102564.00;;;17.81;33.28
75767;BME280;64378;55.596;13.014;2023-05-07T01:46:35;102559.34;;;17.81;33.53
75767;BME280;64378;55.596;13.014;2023-05-07T01:49:00;102556.63;;;17.81;33.61
75767;BME280;64378;55.596;13.014;2023-05-07T01:51:26;102561.25;;;17.81;33.54
75767;BME280;64378;55.596;13.014;2023-05-07T01:53:52;102556.63;;;17.81;33.37
75767;BME280;64378;55.596;13.014;2023-05-07T01:56:18;102557.69;;;17.80;33.50
75767;BME280;64378;55.596;13.014;2023-05-07T01:58:44;102564.81;;;17.81;33.33
75767;BME280;64378;55.596;13.014;2023-05-07T02:01:09;102556.00;;;17.79;33.35
75767;BME280;64378;55.596;13.014;2023-05-07T02:03:35;102559.13;;;17.76;33.34
75767;BME280;64378;55.596;13.014;2023-05-07T02:06:00;102561.84;;;17.76;33.28
75767;BME280;64378;55.596;13.014;2023-05-07T02:08:26;102557.44;;;17.75;33.54
75767;BME280;64378;55.596;13.014;2023-05-07T02:10:51;102552.84;;;17.76;33.74
75767;BME280;64378;55.596;13.014;2023-05-07T02:13:17;102560.16;;;17.75;33.45
75767;BME280;64378;55.596;13.014;2023-05-07T02:15:42;102557.66;;;17.74;33.65
75767;BME280;64378;55.596;13.014;2023-05-07T02:18:08;102553.25;;;17.73;33.50
75767;BME280;64378;55.596;13.014;2023-05-07T02:20:34;102562.47;;;17.72;33.55
75767;BME280;64378;55.596;13.014;2023-05-07T02:22:59;102550.72;;;17.71;33.50
75767;BME280;64378;55.596;13.014;2023-05-07T02:25:25;102560.81;;;17.71;33.46
75767;BME280;64378;55.596;13.014;2023-05-07T02:27:50;102556.38;;;17.70;33.50
75767;BME280;64378;55.596;13.014;2023-05-07T02:30:15;102559.13;;;17.70;33.77
75767;BME280;64378;55.596;13.014;2023-05-07T02:32:41;102548.19;;;17.70;33.52
75767;BME280;64378;55.596;13.014;2023-05-07T02:35:06;102552.81;;;17.69;33.66
75767;BME280;64378;55.596;13.014;2023-05-07T02:37:31;102551.16;;;17.68;33.63
75767;BME280;64378;55.596;13.014;2023-05-07T02:39:56;102544.81;;;17.68;33.71
75767;BME280;64378;55.596;13.014;2023-05-07T02:42:22;102553.00;;;17.68;33.83
75767;BME280;64378;55.596;13.014;2023-05-07T02:44:47;102555.75;;;17.68;33.52
75767;BME280;64378;55.596;13.014;2023-05-07T02:47:13;102547.56;;;17.68;33.49
75767;BME280;64378;55.596;13.014;2023-05-07T02:49:38;102551.31;;;17.67;33.46
75767;BME280;64378;55.596;13.014;2023-05-07T02:52:04;102546.72;;;17.67;33.51
75767;BME280;64378;55.596;13.014;2023-05-07T02:54:29;102545.88;;;17.67;33.63
75767;BME280;64378;55.596;13.014;2023-05-07T02:56:54;102545.88;;;17.67;33.86
75767;BME280;64378;55.596;13.014;2023-05-07T02:59:20;102551.16;;;17.68;33.70
75767;BME280;64378;55.596;13.014;2023-05-07T03:01:45;102549.25;;;17.69;33.75
75767;BME280;64378;55.596;13.014;2023-05-07T03:04:10;102559.34;;;17.68;33.81
75767;BME280;64378;55.596;13.014;2023-05-07T03:06:36;102555.75;;;17.68;33.74
75767;BME280;64378;55.596;13.014;2023-05-07T03:09:01;102561.22;;;17.68;33.62
75767;BME280;64378;55.596;13.014;2023-05-07T03:11:26;102561.03;;;17.69;33.41
75767;BME280;64378;55.596;13.014;2023-05-07T03:13:52;102564.78;;;17.68;33.70
75767;BME280;64378;55.596;13.014;2023-05-07T03:16:17;102570.25;;;17.68;33.72
75767;BME280;64378;55.596;13.014;2023-05-07T03:18:42;102561.22;;;17.68;33.58
75767;BME280;64378;55.596;13.014;2023-05-07T03:21:07;102562.25;;;17.67;33.63
75767;BME280;64378;55.596;13.014;2023-05-07T03:23:33;102556.78;;;17.67;33.82
75767;BME280;64378;55.596;13.014;2023-05-07T03:25:58;102559.53;;;17.67;33.87
75767;BME280;64378;55.596;13.014;2023-05-07T03:28:23;102561.22;;;17.68;33.59
75767;BME280;64378;55.596;13.014;2023-05-07T03:30:48;102561.44;;;17.66;33.80
75767;BME280;64378;55.596;13.014;2023-05-07T03:33:14;102560.56;;;17.66;33.54
75767;BME280;64378;55.596;13.014;2023-05-07T03:35:39;102560.78;;;17.64;33.58
75767;BME280;64378;55.596;13.014;2023-05-07T03:38:04;102564.34;;;17.65;33.69
75767;BME280;64378;55.596;13.014;2023-05-07T03:40:29;102562.47;;;17.65;33.81
75767;BME280;64378;55.596;13.014;2023-05-07T03:42:55;102565.19;;;17.65;33.64
75767;BME280;64378;55.596;13.014;2023-05-07T03:45:20;102556.16;;;17.65;33.64
75767;BME280;64378;55.596;13.014;2023-05-07T03:47:45;102552.38;;;17.66;33.79
75767;BME280;64378;55.596;13.014;2023-05-07T03:50:10;102553.41;;;17.65;33.82
75767;BME280;64378;55.596;13.014;2023-05-07T03:52:36;102562.47;;;17.65;33.71
75767;BME280;64378;55.596;13.014;2023-05-07T03:55:01;102557.84;;;17.66;33.54
75767;BME280;64378;55.596;13.014;2023-05-07T03:57:26;102554.28;;;17.65;33.74
75767;BME280;64378;55.596;13.014;2023-05-07T03:59:51;102558.69;;;17.66;33.79
75767;BME280;64378;55.596;13.014;2023-05-07T04:02:17;102554.06;;;17.67;33.81
75767;BME280;64378;55.596;13.014;2023-05-07T04:04:42;102566.47;;;17.69;33.81
75767;BME280;64378;55.596;13.014;2023-05-07T04:07:07;102559.75;;;17.72;33.75
75767;BME280;64378;55.596;13.014;2023-05-07T04:09:32;102562.06;;;17.75;33.95
75767;BME280;64378;55.596;13.014;2023-05-07T04:11:57;102566.09;;;17.79;33.69
75767;BME280;64378;55.596;13.014;2023-05-07T04:14:23;102567.38;;;17.83;33.82
75767;BME280;64378;55.596;13.014;2023-05-07T04:16:48;102567.78;;;17.86;33.70
75767;BME280;64378;55.596;13.014;2023-05-07T04:19:13;102576.38;;;17.90;33.48
75767;BME280;64378;55.596;13.014;2023-05-07T04:21:38;102575.16;;;17.92;33.66
75767;BME280;64378;55.596;13.014;2023-05-07T04:24:04;102582.31;;;17.93;33.46
75767;BME280;64378;55.596;13.014;2023-05-07T04:26:29;102584.63;;;17.96;33.55
75767;BME280;64378;55.596;13.014;2023-05-07T04:28:55;102589.88;;;17.98;33.67
75767;BME280;64378;55.596;13.014;2023-05-07T04:31:20;102588.59;;;18.00;33.58
75767;BME280;64378;55.596;13.014;2023-05-07T04:33:46;102586.72;;;18.01;33.56
75767;BME280;64378;55.596;13.014;2023-05-07T04:36:11;102587.38;;;18.03;33.51
75767;BME280;64378;55.596;13.014;2023-05-07T04:38:36;102577.25;;;18.03;33.52
75767;BME280;64378;55.596;13.014;2023-05-07T04:41:02;102582.53;;;18.05;33.32
75767;BME280;64378;55.596;13.014;2023-05-07T04:43:28;102585.28;;;18.05;33.38
75767;BME280;64378;55.596;13.014;2023-05-07T04:45:53;102587.78;;;18.06;33.43
75767;BME280;64378;55.596;13.014;2023-05-07T04:48:18;102588.84;;;18.05;33.68
75767;BME280;64378;55.596;13.014;2023-05-07T04:50:48;102594.09;;;18.07;33.37
75767;BME280;64378;55.596;13.014;2023-05-07T04:53:13;102593.06;;;18.08;33.54
75767;BME280;64378;55.596;13.014;2023-05-07T04:55:39;102597.47;;;18.09;33.47
75767;BME280;64378;55.596;13.014;2023-05-07T04:58:04;102596.84;;;18.13;33.59
75767;BME280;64378;55.596;13.014;2023-05-07T05:00:30;102599.16;;;18.16;33.81
75767;BME280;64378;55.596;13.014;2023-05-07T05:02:55;102593.47;;;18.18;33.51
75767;BME280;64378;55.596;13.014;2023-05-07T05:05:20;102597.47;;;18.22;33.65
75767;BME280;64378;55.596;13.014;2023-05-07T05:07:45;102592.69;;;18.24;33.54
75767;BME280;64378;55.596;13.014;2023-05-07T05:10:10;102598.16;;;18.24;33.46
75767;BME280;64378;55.596;13.014;2023-05-07T05:12:36;102599.84;;;18.25;33.47
75767;BME280;64378;55.596;13.014;2023-05-07T05:15:01;102603.41;;;18.25;33.65
75767;BME280;64378;55.596;13.014;2023-05-07T05:17:26;102604.03;;;18.27;33.45
75767;BME280;64378;55.596;13.014;2023-05-07T05:19:51;102604.03;;;18.27;33.67
75767;BME280;64378;55.596;13.014;2023-05-07T05:22:17;102604.88;;;18.28;33.52
75767;BME280;64378;55.596;13.014;2023-05-07T05:24:42;102608.44;;;18.28;33.41
75767;BME280;64378;55.596;13.014;2023-05-07T05:27:07;102609.31;;;18.29;33.49
75767;BME280;64378;55.596;13.014;2023-05-07T05:29:32;102604.88;;;18.28;33.70
75767;BME280;64378;55.596;13.014;2023-05-07T05:31:58;102610.13;;;18.29;33.41
75767;BME280;64378;55.596;13.014;2023-05-07T05:34:23;102603.84;;;18.29;33.73
75767;BME280;64378;55.596;13.014;2023-05-07T05:36:48;102611.00;;;18.30;33.50
75767;BME280;64378;55.596;13.014;2023-05-07T05:39:13;102607.00;;;18.32;33.52
75767;BME280;64378;55.596;13.014;2023-05-07T05:41:39;102614.56;;;18.37;33.68
75767;BME280;64378;55.596;13.014;2023-05-07T05:44:04;102615.19;;;18.39;33.65
75767;BME280;64378;55.596;13.014;2023-05-07T05:46:30;102616.47;;;18.43;33.55
75767;BME280;64378;55.596;13.014;2023-05-07T05:48:55;102613.31;;;18.46;33.83
75767;BME280;64378;55.596;13.014;2023-05-07T05:51:20;102620.25;;;18.48;33.78
75767;BME280;64378;55.596;13.014;2023-05-07T05:53:46;102615.41;;;18.50;33.80
75767;BME280;64378;55.596;13.014;2023-05-07T05:56:11;102613.31;;;18.52;33.83
75767;BME280;64378;55.596;13.014;2023-05-07T05:58:36;102606.78;;;18.53;34.01
75767;BME280;64378;55.596;13.014;2023-05-07T06:01:01;102608.69;;;18.52;33.70
75767;BME280;64378;55.596;13.014;2023-05-07T06:03:27;102608.06;;;18.57;33.97
75767;BME280;64378;55.596;13.014;2023-05-07T06:05:53;102603.00;;;18.60;33.81
75767;BME280;64378;55.596;13.014;2023-05-07T06:08:18;102605.53;;;18.62;33.89
75767;BME280;64378;55.596;13.014;2023-05-07T06:10:43;102613.53;;;18.63;33.81
75767;BME280;64378;55.596;13.014;2023-05-07T06:13:08;102612.28;;;18.66;33.98
75767;BME280;64378;55.596;13.014;2023-05-07T06:15:34;102610.81;;;18.70;33.92
75767;BME280;64378;55.596;13.014;2023-05-07T06:17:59;102622.38;;;18.72;33.64
75767;BME280;64378;55.596;13.014;2023-05-07T06:20:24;102613.97;;;18.73;34.14
75767;BME280;64378;55.596;13.014;2023-05-07T06:22:50;102625.13;;;18.78;33.97
75767;BME280;64378;55.596;13.014;2023-05-07T06:25:15;102627.84;;;18.78;33.77
75767;BME280;64378;55.596;13.014;2023-05-07T06:27:40;102623.19;;;18.79;33.99
75767;BME280;64378;55.596;13.014;2023-05-07T06:30:06;102631.84;;;18.82;33.96
75767;BME280;64378;55.596;13.014;2023-05-07T06:32:31;102629.13;;;18.82;33.87
75767;BME280;64378;55.596;13.014;2023-05-07T06:34:57;102624.06;;;18.86;33.77
75767;BME280;64378;55.596;13.014;2023-05-07T06:37:22;102622.16;;;18.86;33.75
75767;BME280;64378;55.596;13.014;2023-05-07T06:39:47;102616.66;;;18.86;33.90
75767;BME280;64378;55.596;13.014;2023-05-07T06:42:12;102621.31;;;18.86;33.70
75767;BME280;64378;55.596;13.014;2023-05-07T06:44:38;102625.50;;;18.88;33.79
75767;BME280;64378;55.596;13.014;2023-05-07T06:47:03;102635.22;;;18.91;34.07
75767;BME280;64378;55.596;13.014;2023-05-07T06:49:28;102634.16;;;18.92;33.85
75767;BME280;64378;55.596;13.014;2023-05-07T06:51:53;102632.06;;;18.94;33.84
75767;BME280;64378;55.596;13.014;2023-05-07T06:54:19;102630.78;;;18.96;33.71
75767;BME280;64378;55.596;13.014;2023-05-07T06:56:45;102627.00;;;18.97;33.66
75767;BME280;64378;55.596;13.014;2023-05-07T06:59:10;102631.19;;;19.00;33.88
75767;BME280;64378;55.596;13.014;2023-05-07T07:01:35;102628.25;;;19.01;33.76
75767;BME280;64378;55.596;13.014;2023-05-07T07:04:01;102631.63;;;19.03;33.69
75767;BME280;64378;55.596;13.014;2023-05-07T07:06:26;102639.19;;;19.08;33.94
75767;BME280;64378;55.596;13.014;2023-05-07T07:08:51;102639.63;;;19.11;33.65
75767;BME280;64378;55.596;13.014;2023-05-07T07:11:17;102638.38;;;19.14;33.61
75767;BME280;64378;55.596;13.014;2023-05-07T07:13:42;102645.31;;;19.16;33.70
75767;BME280;64378;55.596;13.014;2023-05-07T07:16:08;102642.13;;;19.19;33.52
75767;BME280;64378;55.596;13.014;2023-05-07T07:18:33;102634.56;;;19.21;33.52
75767;BME280;64378;55.596;13.014;2023-05-07T07:20:58;102637.09;;;19.23;33.40
75767;BME280;64378;55.596;13.014;2023-05-07T07:23:24;102644.84;;;19.26;33.63
75767;BME280;64378;55.596;13.014;2023-05-07T07:25:50;102645.50;;;19.28;33.70
75767;BME280;64378;55.596;13.014;2023-05-07T07:28:15;102642.31;;;19.31;33.62
75767;BME280;64378;55.596;13.014;2023-05-07T07:30:40;102646.56;;;19.33;33.27
75767;BME280;64378;55.596;13.014;2023-05-07T07:33:05;102641.72;;;19.35;33.82
75767;BME280;64378;55.596;13.014;2023-05-07T07:35:33;102644.22;;;19.37;33.51
75767;BME280;64378;55.596;13.014;2023-05-07T07:37:59;102641.88;;;19.40;33.49
75767;BME280;64378;55.596;13.014;2023-05-07T07:40:25;102646.09;;;19.43;33.34
75767;BME280;64378;55.596;13.014;2023-05-07T07:42:51;102639.56;;;19.44;33.55
75767;BME280;64378;55.596;13.014;2023-05-07T07:45:16;102644.63;;;19.47;33.67
75767;BME280;64378;55.596;13.014;2023-05-07T07:47:41;102641.22;;;19.51;33.59
75767;BME280;64378;55.596;13.014;2023-05-07T07:50:07;102641.44;;;19.56;33.54
75767;BME280;64378;55.596;13.014;2023-05-07T07:52:32;102641.84;;;19.60;33.50
75767;BME280;64378;55.596;13.014;2023-05-07T07:54:58;102639.72;;;19.62;33.66
75767;BME280;64378;55.596;13.014;2023-05-07T07:57:23;102631.72;;;19.66;33.34
75767;BME280;64378;55.596;13.014;2023-05-07T07:59:49;102635.06;;;19.68;33.47
75767;BME280;64378;55.596;13.014;2023-05-07T08:02:14;102639.25;;;19.71;33.48
75767;BME280;64378;55.596;13.014;2023-05-07T08:04:39;102637.38;;;19.71;33.57
75767;BME280;64378;55.596;13.014;2023-05-07T08:07:05;102632.53;;;19.73;33.51
75767;BME280;64378;55.596;13.014;2023-05-07T08:09:30;102641.13;;;19.77;33.54
75767;BME280;64378;55.596;13.014;2023-05-07T08:11:56;102635.44;;;19.78;33.37
75767;BME280;64378;55.596;13.014;2023-05-07T08:14:21;102638.78;;;19.80;33.40
75767;BME280;64378;55.596;13.014;2023-05-07T08:16:46;102629.31;;;19.83;33.36
75767;BME280;64378;55.596;13.014;2023-05-07T08:19:12;102634.38;;;19.86;33.40
75767;BME280;64378;55.596;13.014;2023-05-07T08:21:40;102645.09;;;19.87;33.52
75767;BME280;64378;55.596;13.014;2023-05-07T08:24:05;102634.97;;;19.88;33.41
75767;BME280;64378;55.596;13.014;2023-05-07T08:26:31;102642.97;;;19.89;33.46
75767;BME280;64378;55.596;13.014;2023-05-07T08:28:56;102638.13;;;19.91;33.61
75767;BME280;64378;55.596;13.014;2023-05-07T08:31:21;102641.25;;;19.95;33.32
75767;BME280;64378;55.596;13.014;2023-05-07T08:33:46;102642.94;;;19.96;33.39
75767;BME280;64378;55.596;13.014;2023-05-07T08:36:12;102642.75;;;19.97;33.24
75767;BME280;64378;55.596;13.014;2023-05-07T08:38:37;102643.59;;;19.98;33.30
75767;BME280;64378;55.596;13.014;2023-05-07T08:41:02;102645.28;;;19.99;33.31
75767;BME280;64378;55.596;13.014;2023-05-07T08:43:28;102644.00;;;20.01;33.28
75767;BME280;64378;55.596;13.014;2023-05-07T08:45:53;102653.06;;;20.02;33.25
75767;BME280;64378;55.596;13.014;2023-05-07T08:48:20;102654.75;;;20.03;33.49
75767;BME280;64378;55.596;13.014;2023-05-07T08:50:46;102650.09;;;20.03;33.28
75767;BME280;64378;55.596;13.014;2023-05-07T08:53:12;102654.53;;;20.04;33.25
75767;BME280;64378;55.596;13.014;2023-05-07T08:55:37;102645.03;;;20.07;33.21
75767;BME280;64378;55.596;13.014;2023-05-07T08:58:03;102653.25;;;20.07;33.14
75767;BME280;64378;55.596;13.014;2023-05-07T09:00:28;102647.78;;;20.07;32.96
75767;BME280;64378;55.596;13.014;2023-05-07T09:02:54;102651.16;;;20.09;33.05
75767;BME280;64378;55.596;13.014;2023-05-07T09:05:19;102654.72;;;20.09;32.89
75767;BME280;64378;55.596;13.014;2023-05-07T09:07:45;102660.44;;;20.08;33.02
75767;BME280;64378;55.596;13.014;2023-05-07T09:10:11;102660.19;;;20.09;32.94
75767;BME280;64378;55.596;13.014;2023-05-07T09:12:36;102659.13;;;20.10;32.92
75767;BME280;64378;55.596;13.014;2023-05-07T09:15:01;102677.25;;;20.11;32.82
75767;BME280;64378;55.596;13.014;2023-05-07T09:17:28;102667.16;;;20.12;32.77
75767;BME280;64378;55.596;13.014;2023-05-07T09:19:53;102669.91;;;20.12;32.80
75767;BME280;64378;55.596;13.014;2023-05-07T09:22:18;102663.56;;;20.11;32.89
75767;BME280;64378;55.596;13.014;2023-05-07T09:24:47;102668.84;;;20.13;32.99
75767;BME280;64378;55.596;13.014;2023-05-07T09:27:12;102675.38;;;20.12;33.00
75767;BME280;64378;55.596;13.014;2023-05-07T09:29:38;102676.19;;;20.12;32.83
75767;BME280;64378;55.596;13.014;2023-05-07T09:32:07;102667.97;;;20.12;32.88
75767;BME280;64378;55.596;13.014;2023-05-07T09:34:32;102674.31;;;20.13;32.83
75767;BME280;64378;55.596;13.014;2023-05-07T09:37:04;102663.56;;;20.11;32.93
75767;BME280;64378;55.596;13.014;2023-05-07T09:42:04;102673.47;;;20.12;32.87
75767;BME280;64378;55.596;13.014;2023-05-07T09:44:31;102667.16;;;20.12;32.76
75767;BME280;64378;55.596;13.014;2023-05-07T09:46:56;102667.34;;;20.10;32.95
75767;BME280;64378;55.596;13.014;2023-05-07T09:49:24;102656.41;;;20.10;32.95
75767;BME280;64378;55.596;13.014;2023-05-07T09:51:54;102663.78;;;20.10;32.89
75767;BME280;64378;55.596;13.014;2023-05-07T09:54:20;102674.75;;;20.10;32.84
75767;BME280;64378;55.596;13.014;2023-05-07T09:56:46;102650.09;;;20.10;32.83
75767;BME280;64378;55.596;13.014;2023-05-07T09:59:13;102657.44;;;20.09;32.80
75767;BME280;64378;55.596;13.014;2023-05-07T10:01:40;102658.31;;;20.10;32.87
75767;BME280;64378;55.596;13.014;2023-05-07T10:04:05;102665.69;;;20.09;32.74
75767;BME280;64378;55.596;13.014;2023-05-07T10:06:33;102657.44;;;20.09;32.76
75767;BME280;64378;55.596;13.014;2023-05-07T10:08:59;102664.63;;;20.10;32.62
75767;BME280;64378;55.596;13.014;2023-05-07T10:11:24;102672.00;;;20.10;32.80
75767;BME280;64378;55.596;13.014;2023-05-07T10:13:49;102669.47;;;20.08;32.66
75767;BME280;64378;55.596;13.014;2023-05-07T10:16:17;102672.22;;;20.08;32.68
75767;BME280;64378;55.596;13.014;2023-05-07T10:18:43;102679.38;;;20.09;32.76
75767;BME280;64378;55.596;13.014;2023-05-07T10:21:15;102667.59;;;20.09;32.59
75767;BME280;64378;55.596;13.014;2023-05-07T10:23:41;102677.69;;;20.08;32.69
75767;BME280;64378;55.596;13.014;2023-05-07T10:26:09;102672.00;;;20.10;32.54
75767;BME280;64378;55.596;13.014;2023-05-07T10:28:38;102671.16;;;20.09;32.40
75767;BME280;64378;55.596;13.014;2023-05-07T10:31:11;102665.91;;;20.08;32.58
75767;BME280;64378;55.596;13.014;2023-05-07T10:33:40;102667.59;;;20.09;32.53
75767;BME280;64378;55.596;13.014;2023-05-07T10:36:07;102674.13;;;20.08;32.66
75767;BME280;64378;55.596;13.014;2023-05-07T10:38:33;102672.22;;;20.08;32.52
75767;BME280;64378;55.596;13.014;2023-05-07T10:40:58;102674.75;;;20.10;32.45
75767;BME280;64378;55.596;13.014;2023-05-07T10:43:24;102677.50;;;20.10;32.42
75767;BME280;64378;55.596;13.014;2023-05-07T10:46:09;102681.28;;;20.09;32.53
75767;BME280;64378;55.596;13.014;2023-05-07T10:48:34;102679.63;;;20.08;32.50
75767;BME280;64378;55.596;13.014;2023-05-07T10:51:20;102678.56;;;20.09;32.65
75767;BME280;64378;55.596;13.014;2023-05-07T10:53:46;102685.72;;;20.10;32.34
75767;BME280;64378;55.596;13.014;2023-05-07T10:58:43;102678.31;;;20.10;32.51
75767;BME280;64378;55.596;13.014;2023-05-07T11:01:08;102686.53;;;20.10;32.50
75767;BME280;64378;55.596;13.014;2023-05-07T11:03:36;102695.38;;;20.12;32.40
75767;BME280;64378;55.596;13.014;2023-05-07T11:06:21;102681.69;;;20.12;32.59
75767;BME280;64378;55.596;13.014;2023-05-07T11:11:17;102691.59;;;20.13;32.55
75767;BME280;64378;55.596;13.014;2023-05-07T11:13:46;102703.38;;;20.14;32.54
75767;BME280;64378;55.596;13.014;2023-05-07T11:16:22;102690.53;;;20.14;32.49
75767;BME280;64378;55.596;13.014;2023-05-07T11:18:53;102689.47;;;20.15;32.32
75767;BME280;64378;55.596;13.014;2023-05-07T11:21:31;102685.88;;;20.15;32.50
75767;BME280;64378;55.596;13.014;2023-05-07T11:23:57;102698.53;;;20.16;32.40
75767;BME280;64378;55.596;13.014;2023-05-07T11:26:23;102691.16;;;20.16;32.35
75767;BME280;64378;55.596;13.014;2023-05-07T11:28:48;102692.22;;;20.15;32.31
75767;BME280;64378;55.596;13.014;2023-05-07T11:31:13;102685.88;;;20.15;32.35
75767;BME280;64378;55.596;13.014;2023-05-07T11:33:39;102685.88;;;20.15;32.29
75767;BME280;64378;55.596;13.014;2023-05-07T11:36:05;102682.53;;;20.13;32.28
75767;BME280;64378;55.596;13.014;2023-05-07T11:38:35;102689.09;;;20.12;32.43
75767;BME280;64378;55.596;13.014;2023-05-07T11:41:01;102684.44;;;20.12;32.33
75767;BME280;64378;55.596;13.014;2023-05-07T11:43:27;102677.88;;;20.13;32.30
75767;BME280;64378;55.596;13.014;2023-05-07T11:45:52;102681.44;;;20.14;32.28
75767;BME280;64378;55.596;13.014;2023-05-07T11:48:18;102668.84;;;20.13;32.30
75767;BME280;64378;55.596;13.014;2023-05-07T11:50:53;102671.34;;;20.14;32.17
75767;BME280;64378;55.596;13.014;2023-05-07T11:53:19;102678.94;;;20.12;32.05
75767;BME280;64378;55.596;13.014;2023-05-07T11:55:45;102671.59;;;20.13;32.22
75767;BME280;64378;55.596;13.014;2023-05-07T11:58:11;102665.00;;;20.14;31.89
75767;BME280;64378;55.596;13.014;2023-05-07T12:00:37;102666.69;;;20.15;32.08
75767;BME280;64378;55.596;13.014;2023-05-07T12:03:03;102662.28;;;20.14;31.87
75767;BME280;64378;55.596;13.014;2023-05-07T12:05:28;102668.59;;;20.14;31.97
75767;BME280;64378;55.596;13.014;2023-05-07T12:07:57;102672.41;;;20.13;32.07
75767;BME280;64378;55.596;13.014;2023-05-07T12:10:22;102672.41;;;20.13;32.07
75767;BME280;64378;55.596;13.014;2023-05-07T12:12:49;102678.50;;;20.15;32.05
75767;BME280;64378;55.596;13.014;2023-05-07T12:15:15;102678.50;;;20.15;32.10
75767;BME280;64378;55.596;13.014;2023-05-07T12:17:41;102680.19;;;20.16;32.14
75767;BME280;64378;55.596;13.014;2023-05-07T12:20:06;102684.81;;;20.16;32.12
75767;BME280;64378;55.596;13.014;2023-05-07T12:22:32;102684.00;;;20.15;31.97
75767;BME280;64378;55.596;13.014;2023-05-07T12:24:57;102678.50;;;20.15;32.05
75767;BME280;64378;55.596;13.014;2023-05-07T12:27:23;102672.16;;;20.15;32.03
75767;BME280;64378;55.596;13.014;2023-05-07T12:29:49;102684.00;;;20.15;32.10
75767;BME280;64378;55.596;13.014;2023-05-07T12:32:15;102687.78;;;20.14;32.18
75767;BME280;64378;55.596;13.014;2023-05-07T12:34:40;102682.31;;;20.14;32.04
75767;BME280;64378;55.596;13.014;2023-05-07T12:37:07;102674.91;;;20.15;32.03
75767;BME280;64378;55.596;13.014;2023-05-07T12:39:33;102681.25;;;20.15;31.99
75767;BME280;64378;55.596;13.014;2023-05-07T12:41:58;102667.56;;;20.15;32.02